Hartland Point — ZIQS6 — position and weather

sailwx.info

Track history (hours):
 
Tides and Currents Weather Stations Pressure Air Temp Water Temp Dewpoint Dewpoint Depression Visibility Wind Speed Wind Dir Waves Ship Positions

Hartland Point

Last reported at 2017-Sep-09 04:37 UTC. Time now 2017-Oct-17 22:42 UTC.
Position N 27°38' W 016°27'.
Warning: this ship's position is 38 days out of date.

Length 193 m; draft 6.3 m.

Type: Cargo ship. MMSI: 235505000.

Date/timePositionNaut miles runAvg speedWind from/ knotsBaromVisibWave heightAir tempDewpointWater temp
2017-Sep-09 04:37N 27°38' W 016°27'416.6
2017-Sep-09 04:23N 27°42' W 016°26'716.6
2017-Sep-09 03:58N 27°48' W 016°24'816.2
2017-Sep-09 03:30N 27°56' W 016°22'915.7
2017-Sep-09 02:54N 28°04' W 016°16'1016.3
2017-Sep-09 02:18N 28°11' W 016°09'816.2
2017-Sep-09 01:48N 28°18' W 016°04'616.1
2017-Sep-09 01:25N 28°22' W 015°59'615.8
2017-Sep-09 01:00N 28°27' W 015°54'815.7
2017-Sep-09 00:30N 28°33' W 015°48'815.7
2017-Sep-09 00:00N 28°39' W 015°43'815.6
2017-Sep-08 23:30N 28°46' W 015°38'815.6
2017-Sep-08 23:00N 28°52' W 015°32'815.5
2017-Sep-08 22:30N 28°58' W 015°26'815.5
2017-Sep-08 22:00N 29°04' W 015°21'815.5
2017-Sep-08 21:30N 29°11' W 015°18'815.8
2017-Sep-08 21:00N 29°19' W 015°16'815.9
2017-Sep-08 20:30N 29°27' W 015°14'815.8
2017-Sep-08 20:01N 29°34' W 015°12'815.7
2017-Sep-08 19:31N 29°42' W 015°09'815.8
2017-Sep-08 19:01N 29°49' W 015°06'815.8
2017-Sep-08 18:31N 29°57' W 015°04'815.7
2017-Sep-08 18:01N 30°04' W 015°01'815.7
2017-Sep-08 17:31N 30°12' W 014°58'1015.8
2017-Sep-08 16:53N 30°21' W 014°55'615.8
2017-Sep-08 16:30N 30°27' W 014°53'915.6
2017-Sep-08 15:57N 30°35' W 014°50'715.6
2017-Sep-08 15:30N 30°42' W 014°48'815.5
2017-Sep-08 15:00N 30°49' W 014°45'815.5
2017-Sep-08 14:30N 30°57' W 014°42'815.7
2017-Sep-08 14:00N 31°04' W 014°39'28315.2
2017-Sep-07 19:25N 35°34' W 012°57'10114.7
2017-Sep-07 12:34N 37°10' W 012°22'514.3
2017-Sep-07 12:12N 37°15' W 012°20'4114.2
2017-Sep-07 09:20N 37°54' W 012°04'514.4
2017-Sep-07 08:59N 37°59' W 012°02'1114.3
2017-Sep-07 08:14N 38°09' W 011°58'314.0
2017-Sep-07 08:00N 38°12' W 011°56'4714.0
2017-Sep-07 04:39N 38°57' W 011°39'314.6
2017-Sep-07 04:28N 38°60' W 011°38'714.2
2017-Sep-07 03:58N 39°06' W 011°35'714.0
2017-Sep-07 03:30N 39°12' W 011°33'1114.1
2017-Sep-07 02:43N 39°23' W 011°29'914.1
2017-Sep-07 02:06N 39°32' W 011°25'4014.1
2017-Sep-06 23:15N 40°10' W 011°09'314.2
2017-Sep-06 23:00N 40°13' W 011°08'914.5
2017-Sep-06 22:22N 40°22' W 011°05'514.7
2017-Sep-06 22:00N 40°27' W 011°03'1214.8
2017-Sep-06 21:12N 40°38' W 010°58'414.5
2017-Sep-06 20:57N 40°42' W 010°57'44813.9
2017-Sep-05 12:43N 47°35' W 006°54'1412.9
2017-Sep-05 11:39N 47°47' W 006°44'8013.4
2017-Sep-05 05:39N 48°57' W 005°44'811.8
2017-Sep-05 04:58N 49°01' W 005°33'711.6
2017-Sep-05 04:22N 49°04' W 005°24'811.6
2017-Sep-05 03:43N 49°08' W 005°15'2911.9
2017-Sep-05 01:19N 49°23' W 004°37'412.9
2017-Sep-05 01:00N 49°24' W 004°31'913.5
2017-Sep-05 00:20N 49°29' W 004°19'1414.2
2017-Sep-04 23:22N 49°35' W 004°01'1214.6
2017-Sep-04 22:31N 49°42' W 003°44'114.7
2017-Sep-04 22:28N 49°42' W 003°43'714.5
2017-Sep-04 22:00N 49°46' W 003°34'714.2
2017-Sep-04 21:31N 49°49' W 003°25'713.6
2017-Sep-04 21:00N 49°53' W 003°16'713.3
2017-Sep-04 20:30N 49°56' W 003°07'612.8
2017-Sep-04 20:01N 49°60' W 002°58'612.0
2017-Sep-04 19:30N 50°02' W 002°50'6912.6
2017-Sep-04 14:03N 50°30' W 001°11'115.3
2017-Sep-04 13:59N 50°30' W 001°10'715.2
2017-Sep-04 13:30N 50°34' W 001°00'715.1
2017-Sep-04 13:01N 50°42' W 000°58'612.9
2017-Sep-04 12:31N 50°45' W 001°07'815.8
2017-Sep-04 12:01N 50°47' W 001°19'611.1
2017-Sep-04 11:31N 50°52' W 001°22'2 0.9
2017-Sep-04 08:45N 50°54' W 001°25'1 2.1
2017-Sep-04 08:19N 50°53' W 001°24'3 9.8
2017-Sep-04 08:00N 50°51' W 001°21'510.2
2017-Sep-04 07:31N 50°46' W 001°21'2 3.3
2017-Sep-04 07:00N 50°45' W 001°22'0 0.1
2017-Sep-04 06:27N 50°45' W 001°22'0 0.0
2017-Sep-04 06:00N 50°45' W 001°22'0 0.0
2017-Sep-04 05:30N 50°45' W 001°22'0 0.0
2017-Sep-04 05:00N 50°45' W 001°22'0 0.0
2017-Sep-04 04:30N 50°45' W 001°22'0 0.0
2017-Sep-04 04:00N 50°45' W 001°22'0 0.1
2017-Sep-04 03:30N 50°45' W 001°22'0 0.1
2017-Sep-04 03:00N 50°45' W 001°23'0 0.2
2017-Sep-04 02:30N 50°45' W 001°23'0 0.1
2017-Sep-04 02:00N 50°45' W 001°23'0 0.0
2017-Sep-04 01:24N 50°45' W 001°23'0 0.0
2017-Sep-04 01:00N 50°45' W 001°23'0 0.0
2017-Sep-04 00:30N 50°45' W 001°23'0 0.0
2017-Sep-04 00:00N 50°45' W 001°23'0 0.0
2017-Sep-03 23:30N 50°45' W 001°23'0 0.0
2017-Sep-03 23:00N 50°45' W 001°23'0 0.0
2017-Sep-03 22:27N 50°45' W 001°23'0 0.0
2017-Sep-03 22:00N 50°45' W 001°23'0 0.1
2017-Sep-03 21:30N 50°45' W 001°23'0 0.1
2017-Sep-03 21:00N 50°45' W 001°23'0 0.1
2017-Sep-03 20:30N 50°45' W 001°23'0 0.1
2017-Sep-03 20:00N 50°45' W 001°22'0 0.1
2017-Sep-03 19:30N 50°45' W 001°22'0 0.0
2017-Sep-03 19:00N 50°45' W 001°22'0 0.0
2017-Sep-03 18:30N 50°45' W 001°22'0 0.0
2017-Sep-03 18:00N 50°45' W 001°22'0 0.2
2017-Sep-03 17:30N 50°45' W 001°23'3 6.8
2017-Sep-03 17:00N 50°47' W 001°19'5 9.4
2017-Sep-03 16:31N 50°52' W 001°22'3 0.8
2017-Sep-03 12:45N 50°54' W 001°25'0 0.0
2017-Sep-03 12:15N 50°54' W 001°25'0 0.0
2017-Sep-03 11:51N 50°54' W 001°25'0 0.0
2017-Sep-03 11:27N 50°54' W 001°25'0 0.0
2017-Sep-03 10:52N 50°54' W 001°25'0 0.0
2017-Sep-03 10:30N 50°54' W 001°25'0 0.0
2017-Sep-03 09:45N 50°54' W 001°25'0 0.0
2017-Sep-03 09:24N 50°54' W 001°25'0 0.0
2017-Sep-03 08:43N 50°54' W 001°25'0 0.0
2017-Sep-03 08:28N 50°54' W 001°25'0 0.0
2017-Sep-03 07:55N 50°54' W 001°25'0 0.0
2017-Sep-03 07:25N 50°54' W 001°25'0 0.0
2017-Sep-03 00:49N 50°54' W 001°25'0 0.0
2017-Sep-03 00:19N 50°54' W 001°25'0 0.0
2017-Sep-02 23:55N 50°54' W 001°25'0 0.0
2017-Sep-02 23:25N 50°54' W 001°25'0 0.0
2017-Sep-02 22:55N 50°54' W 001°25'0 0.0
2017-Sep-02 22:25N 50°54' W 001°25'0 0.0
2017-Sep-02 21:55N 50°54' W 001°25'0 0.0
2017-Sep-02 21:13N 50°54' W 001°25'0 0.0
2017-Sep-02 20:49N 50°54' W 001°25'0 0.0
2017-Sep-02 20:25N 50°54' W 001°25'0 0.0
2017-Sep-02 19:55N 50°54' W 001°25'0 0.0
2017-Sep-02 19:28N 50°54' W 001°25'0 0.0
2017-Sep-02 18:49N 50°54' W 001°25'0 0.0
2017-Sep-02 18:13N 50°54' W 001°25'0 0.0
2017-Sep-02 17:43N 50°54' W 001°25'0 0.0
2017-Sep-02 17:19N 50°54' W 001°25'0 0.0
2017-Sep-02 04:40N 50°54' W 001°25'0 0.0
2017-Sep-02 04:22N 50°54' W 001°25'0 0.0
2017-Sep-02 02:43N 50°54' W 001°25'0 0.0
2017-Sep-02 01:31N 50°54' W 001°25'0 0.0
2017-Sep-02 01:28N 50°54' W 001°25'0 0.0
2017-Sep-02 00:25N 50°54' W 001°25'0 0.0
2017-Sep-01 23:10N 50°54' W 001°25'0 0.0
2017-Sep-01 22:52N 50°54' W 001°25'0 0.0
2017-Sep-01 22:16N 50°54' W 001°25'0 0.0
2017-Sep-01 21:49N 50°54' W 001°25'0 0.0
2017-Sep-01 21:19N 50°54' W 001°25'0 0.0
2017-Sep-01 20:55N 50°54' W 001°25'0 0.0
2017-Sep-01 20:01N 50°54' W 001°25'0 0.0
2017-Sep-01 17:01N 50°54' W 001°25'0 0.0
2017-Sep-01 09:22N 50°54' W 001°25'0 0.0
2017-Sep-01 08:49N 50°54' W 001°25'0 0.0
2017-Sep-01 08:28N 50°54' W 001°25'0 0.0
2017-Sep-01 07:49N 50°54' W 001°25'0 0.0
2017-Sep-01 07:25N 50°54' W 001°25'0 0.0
2017-Sep-01 06:55N 50°54' W 001°25'0 0.0
2017-Sep-01 06:28N 50°54' W 001°25'0 0.0
2017-Sep-01 05:55N 50°54' W 001°25'0 0.0
2017-Sep-01 05:30N 50°54' W 001°25'0 0.5
2017-Sep-01 05:00N 50°54' W 001°25'3 5.8
2017-Sep-01 04:31N 50°52' W 001°22'5 9.4
2017-Sep-01 04:01N 50°47' W 001°19'5 9.9
2017-Sep-01 03:30N 50°46' W 001°11'713.4
2017-Sep-01 03:01N 50°43' W 001°01'510.6
2017-Sep-01 02:30N 50°38' W 000°59'613.0
2017-Sep-01 02:00N 50°33' W 001°03'611.2
2017-Sep-01 01:28N 50°29' W 001°10'510.4
2017-Sep-01 00:58N 50°26' W 001°17'1 0.3
2017-Aug-31 19:28N 50°25' W 001°18'1 1.3
2017-Aug-31 18:57N 50°25' W 001°18'43 9.5
2017-Aug-31 14:26N 50°24' W 002°25'3 7.2
2017-Aug-31 14:00N 50°25' W 002°30'46 9.5
2017-Aug-31 09:08N 50°25' W 001°17'3710.3
2017-Aug-31 05:31N 50°29' W 000°19'1 9.7
2017-Aug-31 05:27N 50°29' W 000°18'4 9.6
2017-Aug-31 05:01N 50°29' W 000°11'5 9.3
2017-Aug-31 04:30N 50°30' W 000°04'5 9.1
2017-Aug-31 04:01N 50°30' E 000°03'5 9.0
2017-Aug-31 03:31N 50°32' E 000°10'4 8.8
2017-Aug-31 03:00N 50°33' E 000°16'4 8.8
2017-Aug-31 02:30N 50°35' E 000°23'4 8.9
2017-Aug-31 02:00N 50°36' E 000°29'5 9.1
2017-Aug-31 01:31N 50°38' E 000°36'5 9.6
2017-Aug-31 01:00N 50°41' E 000°42'5 9.8
2017-Aug-31 00:31N 50°44' E 000°48'510.2
2017-Aug-31 00:01N 50°47' E 000°55'610.4
2017-Aug-30 23:29N 50°50' E 001°02'810.3
2017-Aug-30 22:40N 50°56' E 001°12'210.3
2017-Aug-30 22:30N 50°57' E 001°14'510.2
2017-Aug-30 21:59N 51°00' E 001°20'510.1
2017-Aug-30 21:30N 51°03' E 001°26'5 9.9
2017-Aug-30 21:00N 51°07' E 001°32'5 9.6
2017-Aug-30 20:31N 51°10' E 001°38'5 9.3
2017-Aug-30 20:00N 51°13' E 001°44'4 8.9
2017-Aug-30 19:30N 51°16' E 001°48'4 9.0
2017-Aug-30 19:01N 51°19' E 001°53'5 9.1
2017-Aug-30 18:30N 51°23' E 001°57'4 7.7
2017-Aug-30 18:01N 51°24' E 002°03'4 8.7
2017-Aug-30 17:30N 51°22' E 002°10'4 8.6
2017-Aug-30 17:01N 51°20' E 002°16'5 9.2
2017-Aug-30 16:30N 51°22' E 002°23'5 9.4
2017-Aug-30 16:00N 51°23' E 002°30'5 9.1
2017-Aug-30 15:30N 51°23' E 002°38'1 2.6
2017-Aug-30 14:59N 51°24' E 002°38'0 0.1
2017-Aug-30 14:28N 51°24' E 002°38'0 0.1
2017-Aug-30 13:56N 51°24' E 002°38'0 0.0
2017-Aug-30 13:29N 51°24' E 002°38'0 0.1
2017-Aug-30 12:58N 51°24' E 002°38'0 0.1
2017-Aug-30 12:29N 51°24' E 002°38'0 0.0
2017-Aug-30 11:59N 51°24' E 002°38'0 0.0
2017-Aug-30 11:29N 51°24' E 002°38'0 0.0
2017-Aug-30 10:59N 51°24' E 002°38'0 0.0
2017-Aug-30 10:29N 51°24' E 002°38'0 0.1
2017-Aug-30 09:58N 51°24' E 002°38'0 0.1
2017-Aug-30 09:29N 51°24' E 002°38'0 0.1
2017-Aug-30 08:59N 51°24' E 002°38'0 0.1
2017-Aug-30 08:29N 51°24' E 002°38'0 0.0
2017-Aug-30 07:58N 51°24' E 002°38'0 0.0
2017-Aug-30 07:28N 51°24' E 002°38'0 0.0
2017-Aug-30 06:58N 51°24' E 002°38'0 0.0
2017-Aug-30 06:28N 51°24' E 002°38'0 0.0
2017-Aug-30 05:55N 51°24' E 002°38'0 0.0
2017-Aug-30 05:28N 51°24' E 002°38'0 0.0
2017-Aug-30 04:58N 51°24' E 002°38'  
Track history (hours):
 
Tides and Currents Weather Stations Pressure Air Temp Water Temp Dewpoint Dewpoint Depression Visibility Wind Speed Wind Dir Waves Ship Positions

Hartland Point

Last reported at 2017-Sep-09 04:37 UTC. Time now 2017-Oct-17 22:42 UTC.
Position N 27°38' W 016°27'.
Warning: this ship's position is 38 days out of date.

Length 193 m; draft 6.3 m.

Type: Cargo ship. MMSI: 235505000.

Date/timePositionNaut miles runAvg speedWind from/ knotsBaromVisibWave heightAir tempDewpointWater temp
2017-Sep-09 04:37N 27°38' W 016°27'416.6
2017-Sep-09 04:23N 27°42' W 016°26'716.6
2017-Sep-09 03:58N 27°48' W 016°24'816.2
2017-Sep-09 03:30N 27°56' W 016°22'915.7
2017-Sep-09 02:54N 28°04' W 016°16'1016.3
2017-Sep-09 02:18N 28°11' W 016°09'816.2
2017-Sep-09 01:48N 28°18' W 016°04'616.1
2017-Sep-09 01:25N 28°22' W 015°59'615.8
2017-Sep-09 01:00N 28°27' W 015°54'815.7
2017-Sep-09 00:30N 28°33' W 015°48'815.7
2017-Sep-09 00:00N 28°39' W 015°43'815.6
2017-Sep-08 23:30N 28°46' W 015°38'815.6
2017-Sep-08 23:00N 28°52' W 015°32'815.5
2017-Sep-08 22:30N 28°58' W 015°26'815.5
2017-Sep-08 22:00N 29°04' W 015°21'815.5
2017-Sep-08 21:30N 29°11' W 015°18'815.8
2017-Sep-08 21:00N 29°19' W 015°16'815.9
2017-Sep-08 20:30N 29°27' W 015°14'815.8
2017-Sep-08 20:01N 29°34' W 015°12'815.7
2017-Sep-08 19:31N 29°42' W 015°09'815.8
2017-Sep-08 19:01N 29°49' W 015°06'815.8
2017-Sep-08 18:31N 29°57' W 015°04'815.7
2017-Sep-08 18:01N 30°04' W 015°01'815.7
2017-Sep-08 17:31N 30°12' W 014°58'1015.8
2017-Sep-08 16:53N 30°21' W 014°55'615.8
2017-Sep-08 16:30N 30°27' W 014°53'915.6
2017-Sep-08 15:57N 30°35' W 014°50'715.6
2017-Sep-08 15:30N 30°42' W 014°48'815.5
2017-Sep-08 15:00N 30°49' W 014°45'815.5
2017-Sep-08 14:30N 30°57' W 014°42'815.7
2017-Sep-08 14:00N 31°04' W 014°39'28315.2
2017-Sep-07 19:25N 35°34' W 012°57'10114.7
2017-Sep-07 12:34N 37°10' W 012°22'514.3
2017-Sep-07 12:12N 37°15' W 012°20'4114.2
2017-Sep-07 09:20N 37°54' W 012°04'514.4
2017-Sep-07 08:59N 37°59' W 012°02'1114.3
2017-Sep-07 08:14N 38°09' W 011°58'314.0
2017-Sep-07 08:00N 38°12' W 011°56'4714.0
2017-Sep-07 04:39N 38°57' W 011°39'314.6
2017-Sep-07 04:28N 38°60' W 011°38'714.2
2017-Sep-07 03:58N 39°06' W 011°35'714.0
2017-Sep-07 03:30N 39°12' W 011°33'1114.1
2017-Sep-07 02:43N 39°23' W 011°29'914.1
2017-Sep-07 02:06N 39°32' W 011°25'4014.1
2017-Sep-06 23:15N 40°10' W 011°09'314.2
2017-Sep-06 23:00N 40°13' W 011°08'914.5
2017-Sep-06 22:22N 40°22' W 011°05'514.7
2017-Sep-06 22:00N 40°27' W 011°03'1214.8
2017-Sep-06 21:12N 40°38' W 010°58'414.5
2017-Sep-06 20:57N 40°42' W 010°57'44813.9
2017-Sep-05 12:43N 47°35' W 006°54'1412.9
2017-Sep-05 11:39N 47°47' W 006°44'8013.4
2017-Sep-05 05:39N 48°57' W 005°44'811.8
2017-Sep-05 04:58N 49°01' W 005°33'711.6
2017-Sep-05 04:22N 49°04' W 005°24'811.6
2017-Sep-05 03:43N 49°08' W 005°15'2911.9
2017-Sep-05 01:19N 49°23' W 004°37'412.9
2017-Sep-05 01:00N 49°24' W 004°31'913.5
2017-Sep-05 00:20N 49°29' W 004°19'1414.2
2017-Sep-04 23:22N 49°35' W 004°01'1214.6
2017-Sep-04 22:31N 49°42' W 003°44'114.7
2017-Sep-04 22:28N 49°42' W 003°43'714.5
2017-Sep-04 22:00N 49°46' W 003°34'714.2
2017-Sep-04 21:31N 49°49' W 003°25'713.6
2017-Sep-04 21:00N 49°53' W 003°16'713.3
2017-Sep-04 20:30N 49°56' W 003°07'612.8
2017-Sep-04 20:01N 49°60' W 002°58'612.0
2017-Sep-04 19:30N 50°02' W 002°50'6912.6
2017-Sep-04 14:03N 50°30' W 001°11'115.3
2017-Sep-04 13:59N 50°30' W 001°10'715.2
2017-Sep-04 13:30N 50°34' W 001°00'715.1
2017-Sep-04 13:01N 50°42' W 000°58'612.9
2017-Sep-04 12:31N 50°45' W 001°07'815.8
2017-Sep-04 12:01N 50°47' W 001°19'611.1
2017-Sep-04 11:31N 50°52' W 001°22'2 0.9
2017-Sep-04 08:45N 50°54' W 001°25'1 2.1
2017-Sep-04 08:19N 50°53' W 001°24'3 9.8
2017-Sep-04 08:00N 50°51' W 001°21'510.2
2017-Sep-04 07:31N 50°46' W 001°21'2 3.3
2017-Sep-04 07:00N 50°45' W 001°22'0 0.1
2017-Sep-04 06:27N 50°45' W 001°22'0 0.0
2017-Sep-04 06:00N 50°45' W 001°22'0 0.0
2017-Sep-04 05:30N 50°45' W 001°22'0 0.0
2017-Sep-04 05:00N 50°45' W 001°22'0 0.0
2017-Sep-04 04:30N 50°45' W 001°22'0 0.0
2017-Sep-04 04:00N 50°45' W 001°22'0 0.1
2017-Sep-04 03:30N 50°45' W 001°22'0 0.1
2017-Sep-04 03:00N 50°45' W 001°23'0 0.2
2017-Sep-04 02:30N 50°45' W 001°23'0 0.1
2017-Sep-04 02:00N 50°45' W 001°23'0 0.0
2017-Sep-04 01:24N 50°45' W 001°23'0 0.0
2017-Sep-04 01:00N 50°45' W 001°23'0 0.0
2017-Sep-04 00:30N 50°45' W 001°23'0 0.0
2017-Sep-04 00:00N 50°45' W 001°23'0 0.0
2017-Sep-03 23:30N 50°45' W 001°23'0 0.0
2017-Sep-03 23:00N 50°45' W 001°23'0 0.0
2017-Sep-03 22:27N 50°45' W 001°23'0 0.0
2017-Sep-03 22:00N 50°45' W 001°23'0 0.1
2017-Sep-03 21:30N 50°45' W 001°23'0 0.1
2017-Sep-03 21:00N 50°45' W 001°23'0 0.1
2017-Sep-03 20:30N 50°45' W 001°23'0 0.1
2017-Sep-03 20:00N 50°45' W 001°22'0 0.1
2017-Sep-03 19:30N 50°45' W 001°22'0 0.0
2017-Sep-03 19:00N 50°45' W 001°22'0 0.0
2017-Sep-03 18:30N 50°45' W 001°22'0 0.0
2017-Sep-03 18:00N 50°45' W 001°22'0 0.2
2017-Sep-03 17:30N 50°45' W 001°23'3 6.8
2017-Sep-03 17:00N 50°47' W 001°19'5 9.4
2017-Sep-03 16:31N 50°52' W 001°22'3 0.8
2017-Sep-03 12:45N 50°54' W 001°25'0 0.0
2017-Sep-03 12:15N 50°54' W 001°25'0 0.0
2017-Sep-03 11:51N 50°54' W 001°25'0 0.0
2017-Sep-03 11:27N 50°54' W 001°25'0 0.0
2017-Sep-03 10:52N 50°54' W 001°25'0 0.0
2017-Sep-03 10:30N 50°54' W 001°25'0 0.0
2017-Sep-03 09:45N 50°54' W 001°25'0 0.0
2017-Sep-03 09:24N 50°54' W 001°25'0 0.0
2017-Sep-03 08:43N 50°54' W 001°25'0 0.0
2017-Sep-03 08:28N 50°54' W 001°25'0 0.0
2017-Sep-03 07:55N 50°54' W 001°25'0 0.0
2017-Sep-03 07:25N 50°54' W 001°25'0 0.0
2017-Sep-03 00:49N 50°54' W 001°25'0 0.0
2017-Sep-03 00:19N 50°54' W 001°25'0 0.0
2017-Sep-02 23:55N 50°54' W 001°25'0 0.0
2017-Sep-02 23:25N 50°54' W 001°25'0 0.0
2017-Sep-02 22:55N 50°54' W 001°25'0 0.0
2017-Sep-02 22:25N 50°54' W 001°25'0 0.0
2017-Sep-02 21:55N 50°54' W 001°25'0 0.0
2017-Sep-02 21:13N 50°54' W 001°25'0 0.0
2017-Sep-02 20:49N 50°54' W 001°25'0 0.0
2017-Sep-02 20:25N 50°54' W 001°25'0 0.0
2017-Sep-02 19:55N 50°54' W 001°25'0 0.0
2017-Sep-02 19:28N 50°54' W 001°25'0 0.0
2017-Sep-02 18:49N 50°54' W 001°25'0 0.0
2017-Sep-02 18:13N 50°54' W 001°25'0 0.0
2017-Sep-02 17:43N 50°54' W 001°25'0 0.0
2017-Sep-02 17:19N 50°54' W 001°25'0 0.0
2017-Sep-02 04:40N 50°54' W 001°25'0 0.0
2017-Sep-02 04:22N 50°54' W 001°25'0 0.0
2017-Sep-02 02:43N 50°54' W 001°25'0 0.0
2017-Sep-02 01:31N 50°54' W 001°25'0 0.0
2017-Sep-02 01:28N 50°54' W 001°25'0 0.0
2017-Sep-02 00:25N 50°54' W 001°25'0 0.0
2017-Sep-01 23:10N 50°54' W 001°25'0 0.0
2017-Sep-01 22:52N 50°54' W 001°25'0 0.0
2017-Sep-01 22:16N 50°54' W 001°25'0 0.0
2017-Sep-01 21:49N 50°54' W 001°25'0 0.0
2017-Sep-01 21:19N 50°54' W 001°25'0 0.0
2017-Sep-01 20:55N 50°54' W 001°25'0 0.0
2017-Sep-01 20:01N 50°54' W 001°25'0 0.0
2017-Sep-01 17:01N 50°54' W 001°25'0 0.0
2017-Sep-01 09:22N 50°54' W 001°25'0 0.0
2017-Sep-01 08:49N 50°54' W 001°25'0 0.0
2017-Sep-01 08:28N 50°54' W 001°25'0 0.0
2017-Sep-01 07:49N 50°54' W 001°25'0 0.0
2017-Sep-01 07:25N 50°54' W 001°25'0 0.0
2017-Sep-01 06:55N 50°54' W 001°25'0 0.0
2017-Sep-01 06:28N 50°54' W 001°25'0 0.0
2017-Sep-01 05:55N 50°54' W 001°25'0 0.0
2017-Sep-01 05:30N 50°54' W 001°25'0 0.5
2017-Sep-01 05:00N 50°54' W 001°25'3 5.8
2017-Sep-01 04:31N 50°52' W 001°22'5 9.4
2017-Sep-01 04:01N 50°47' W 001°19'5 9.9
2017-Sep-01 03:30N 50°46' W 001°11'713.4
2017-Sep-01 03:01N 50°43' W 001°01'510.6
2017-Sep-01 02:30N 50°38' W 000°59'613.0
2017-Sep-01 02:00N 50°33' W 001°03'611.2
2017-Sep-01 01:28N 50°29' W 001°10'510.4
2017-Sep-01 00:58N 50°26' W 001°17'1 0.3
2017-Aug-31 19:28N 50°25' W 001°18'1 1.3
2017-Aug-31 18:57N 50°25' W 001°18'43 9.5
2017-Aug-31 14:26N 50°24' W 002°25'3 7.2
2017-Aug-31 14:00N 50°25' W 002°30'46 9.5
2017-Aug-31 09:08N 50°25' W 001°17'3710.3
2017-Aug-31 05:31N 50°29' W 000°19'1 9.7
2017-Aug-31 05:27N 50°29' W 000°18'4 9.6
2017-Aug-31 05:01N 50°29' W 000°11'5 9.3
2017-Aug-31 04:30N 50°30' W 000°04'5 9.1
2017-Aug-31 04:01N 50°30' E 000°03'5 9.0
2017-Aug-31 03:31N 50°32' E 000°10'4 8.8
2017-Aug-31 03:00N 50°33' E 000°16'4 8.8
2017-Aug-31 02:30N 50°35' E 000°23'4 8.9
2017-Aug-31 02:00N 50°36' E 000°29'5 9.1
2017-Aug-31 01:31N 50°38' E 000°36'5 9.6
2017-Aug-31 01:00N 50°41' E 000°42'5 9.8
2017-Aug-31 00:31N 50°44' E 000°48'510.2
2017-Aug-31 00:01N 50°47' E 000°55'610.4
2017-Aug-30 23:29N 50°50' E 001°02'810.3
2017-Aug-30 22:40N 50°56' E 001°12'210.3
2017-Aug-30 22:30N 50°57' E 001°14'510.2
2017-Aug-30 21:59N 51°00' E 001°20'510.1
2017-Aug-30 21:30N 51°03' E 001°26'5 9.9
2017-Aug-30 21:00N 51°07' E 001°32'5 9.6
2017-Aug-30 20:31N 51°10' E 001°38'5 9.3
2017-Aug-30 20:00N 51°13' E 001°44'4 8.9
2017-Aug-30 19:30N 51°16' E 001°48'4 9.0
2017-Aug-30 19:01N 51°19' E 001°53'5 9.1
2017-Aug-30 18:30N 51°23' E 001°57'4 7.7
2017-Aug-30 18:01N 51°24' E 002°03'4 8.7
2017-Aug-30 17:30N 51°22' E 002°10'4 8.6
2017-Aug-30 17:01N 51°20' E 002°16'5 9.2
2017-Aug-30 16:30N 51°22' E 002°23'5 9.4
2017-Aug-30 16:00N 51°23' E 002°30'5 9.1
2017-Aug-30 15:30N 51°23' E 002°38'1 2.6
2017-Aug-30 14:59N 51°24' E 002°38'0 0.1
2017-Aug-30 14:28N 51°24' E 002°38'0 0.1
2017-Aug-30 13:56N 51°24' E 002°38'0 0.0
2017-Aug-30 13:29N 51°24' E 002°38'0 0.1
2017-Aug-30 12:58N 51°24' E 002°38'0 0.1
2017-Aug-30 12:29N 51°24' E 002°38'0 0.0
2017-Aug-30 11:59N 51°24' E 002°38'0 0.0
2017-Aug-30 11:29N 51°24' E 002°38'0 0.0
2017-Aug-30 10:59N 51°24' E 002°38'0 0.0
2017-Aug-30 10:29N 51°24' E 002°38'0 0.1
2017-Aug-30 09:58N 51°24' E 002°38'0 0.1
2017-Aug-30 09:29N 51°24' E 002°38'0 0.1
2017-Aug-30 08:59N 51°24' E 002°38'0 0.1
2017-Aug-30 08:29N 51°24' E 002°38'0 0.0
2017-Aug-30 07:58N 51°24' E 002°38'0 0.0
2017-Aug-30 07:28N 51°24' E 002°38'0 0.0
2017-Aug-30 06:58N 51°24' E 002°38'0 0.0
2017-Aug-30 06:28N 51°24' E 002°38'0 0.0
2017-Aug-30 05:55N 51°24' E 002°38'0 0.0
2017-Aug-30 05:28N 51°24' E 002°38'0 0.0
2017-Aug-30 04:58N 51°24' E 002°38'  

Dump ship's entire track history